Time;durP1;ratioP1;P1;durP2;ratioP2;P2;SDS_P1;SDS_P2;PMS_P1;PMS_P2;Temp;Humidity;BMP_temperature;BMP_pressure;BME280_temperature;BME280_humidity;BME280_pressure;Samples;Min_cycle;Max_cycle;Signal;HPM_P1;HPM_P2
2022/10/04 00:01:22;;;;;;;18.80;17.15;;;;;;;11.21;100.00;102201.56;5071904;28;20043;-76
2022/10/04 00:04:09;;;;;;;16.08;15.30;;;;;;;11.37;100.00;102216.25;5072056;28;20028;-76
2022/10/04 00:06:43;;;;;;;17.02;16.23;;;;;;;11.36;100.00;102218.00;5068477;28;20048;-76
2022/10/04 00:09:18;;;;;;;16.92;15.77;;;;;;;11.28;100.00;102199.31;5071637;28;20460;-76
2022/10/04 00:11:46;;;;;;;17.23;16.33;;;;;;;11.37;100.00;102209.13;5070033;28;20115;-76
2022/10/04 00:14:31;;;;;;;18.38;17.33;;;;;;;11.44;100.00;102220.91;5078106;28;20123;-76
2022/10/04 00:16:59;;;;;;;20.02;18.70;;;;;;;11.42;100.00;102211.41;5074940;28;20033;-75
2022/10/04 00:19:36;;;;;;;18.77;17.48;;;;;;;11.36;100.00;102207.44;5065544;28;20029;-75
2022/10/04 00:22:07;;;;;;;18.13;16.92;;;;;;;11.35;100.00;102203.13;5071705;28;20043;-75
2022/10/04 00:24:34;;;;;;;17.05;16.05;;;;;;;11.31;100.00;102196.41;5073527;28;20016;-75
2022/10/04 00:27:22;;;;;;;18.67;17.77;;;;;;;11.34;100.00;102198.78;5075148;28;20083;-75
2022/10/04 00:30:20;;;;;;;18.60;17.55;;;;;;;11.31;100.00;102199.88;5076450;28;20037;-75
2022/10/04 00:33:06;;;;;;;16.85;16.10;;;;;;;11.30;100.00;102192.06;5069081;28;20044;-75
2022/10/04 00:35:32;;;;;;;20.08;19.02;;;;;;;11.30;100.00;102189.44;5068963;28;20620;-75
2022/10/04 00:38:13;;;;;;;18.33;17.10;;;;;;;11.31;100.00;102183.19;5069071;28;20024;-75
2022/10/04 00:40:45;;;;;;;;;;;;;;;11.28;100.00;102179.00;5068997;28;20033;-76
2022/10/04 00:43:40;;;;;;;18.48;17.45;;;;;;;11.30;100.00;102181.50;5074202;28;20370;-76
2022/10/04 00:46:12;;;;;;;17.40;16.55;;;;;;;11.22;100.00;102166.25;5076781;28;20123;-76
2022/10/04 00:48:53;;;;;;;19.40;18.50;;;;;;;11.27;100.00;102172.00;5080399;28;20493;-76
2022/10/04 00:51:24;;;;;;;19.02;17.90;;;;;;;11.24;100.00;102171.44;5080807;28;20142;-76
2022/10/04 00:53:50;;;;;;;18.63;17.50;;;;;;;11.27;100.00;102171.19;5080615;28;20029;-76
2022/10/04 00:56:24;;;;;;;19.75;18.45;;;;;;;11.12;100.00;102147.63;5087971;28;20021;-76
2022/10/04 00:58:53;;;;;;;20.15;18.55;;;;;;;11.25;100.00;102166.00;5085349;28;20029;-76
2022/10/04 01:01:24;;;;;;;21.30;20.08;;;;;;;11.19;100.00;102157.72;5077895;28;20035;-76
2022/10/04 01:03:52;;;;;;;20.45;19.30;;;;;;;11.17;100.00;102149.94;5080462;28;20032;-76
2022/10/04 01:06:20;;;;;;;20.77;19.38;;;;;;;11.11;100.00;102130.13;5080726;28;20052;-75
2022/10/04 01:08:53;;;;;;;19.73;18.63;;;;;;;11.09;100.00;102113.53;5091630;28;20016;-75
2022/10/04 01:11:28;;;;;;;23.30;21.85;;;;;;;11.21;100.00;102121.44;5078695;28;20028;-75
2022/10/04 01:14:03;;;;;;;24.17;22.77;;;;;;;11.31;100.00;102133.81;5085396;28;20035;-75
2022/10/04 01:16:32;;;;;;;23.30;22.00;;;;;;;11.20;100.00;102128.53;5069466;28;20032;-75
2022/10/04 01:19:29;;;;;;;25.20;23.80;;;;;;;11.32;100.00;102145.22;5072133;28;20033;-75
2022/10/04 01:22:06;;;;;;;21.83;20.83;;;;;;;11.29;100.00;102138.38;5076189;28;20024;-77
2022/10/04 01:24:36;;;;;;;24.77;22.63;;;;;;;11.26;100.00;102140.44;5083236;28;20043;-76
2022/10/04 01:27:02;;;;;;;21.20;19.47;;;;;;;11.25;100.00;102134.28;5076569;28;20033;-76
2022/10/04 01:29:30;;;;;;;21.98;21.00;;;;;;;11.22;100.00;102131.06;5070750;28;20279;-76
2022/10/04 01:31:58;;;;;;;20.30;18.77;;;;;;;11.18;100.00;102132.28;5070970;28;20396;-76
2022/10/04 01:34:27;;;;;;;23.63;22.10;;;;;;;11.16;100.00;102123.63;5077495;28;20020;-76
2022/10/04 01:36:55;;;;;;;22.75;21.23;;;;;;;11.04;100.00;102113.09;5072001;28;20484;-76
2022/10/04 01:39:23;;;;;;;20.33;19.40;;;;;;;10.97;100.00;102101.31;5077979;28;20025;-76
2022/10/04 01:41:57;;;;;;;20.33;19.05;;;;;;;11.11;100.00;102132.75;5072193;28;20065;-76
2022/10/04 01:44:47;;;;;;;26.30;24.23;;;;;;;11.11;100.00;102122.19;5073865;28;20025;-76
2022/10/04 01:47:21;;;;;;;22.52;21.20;;;;;;;11.09;100.00;102115.34;5070765;28;20032;-76
2022/10/04 01:49:47;;;;;;;20.40;19.30;;;;;;;11.08;100.00;102109.25;5069685;28;20100;-76
2022/10/04 01:52:21;;;;;;;21.20;19.92;;;;;;;11.11;100.00;102111.63;5080116;28;20119;-76
2022/10/04 01:54:58;;;;;;;22.58;21.33;;;;;;;11.11;100.00;102108.97;5073102;28;20028;-76
2022/10/04 01:57:32;;;;;;;21.42;20.42;;;;;;;11.14;100.00;102117.63;5076838;28;20025;-76
2022/10/04 02:00:11;;;;;;;22.85;21.35;;;;;;;11.16;100.00;102105.97;5076820;28;20029;-76
2022/10/04 02:02:53;;;;;;;23.17;21.88;;;;;;;11.15;100.00;102098.16;5069181;28;20021;-76
2022/10/04 02:05:41;;;;;;;22.55;21.25;;;;;;;11.10;100.00;102090.59;5080655;28;20043;-76
2022/10/04 02:08:17;;;;;;;21.38;20.13;;;;;;;11.02;100.00;102067.47;5087117;28;20025;-76
2022/10/04 02:10:47;;;;;;;24.38;22.98;;;;;;;11.11;100.00;102082.56;5081799;28;20029;-76
2022/10/04 02:13:19;;;;;;;25.40;23.85;;;;;;;11.11;100.00;102064.06;5076602;28;20055;-76
2022/10/04 02:15:46;;;;;;;26.05;24.48;;;;;;;11.14;100.00;102073.53;5069142;28;20023;-76
2022/10/04 02:18:13;;;;;;;23.80;22.15;;;;;;;11.15;100.00;102083.16;5075111;28;20041;-76
2022/10/04 02:20:41;;;;;;;26.15;24.85;;;;;;;11.11;100.00;102081.72;5074433;28;20073;-76
2022/10/04 02:23:09;;;;;;;25.17;23.70;;;;;;;11.23;100.00;102107.16;5079603;28;20032;-76
2022/10/04 02:25:36;;;;;;;24.75;23.70;;;;;;;11.22;100.00;102094.91;5073330;28;20088;-76
2022/10/04 02:28:02;;;;;;;26.45;24.73;;;;;;;11.20;100.00;102080.97;5081857;28;20033;-76
2022/10/04 02:30:33;;;;;;;30.35;28.75;;;;;;;11.04;100.00;102054.97;5075762;28;20377;-76
2022/10/04 02:32:59;;;;;;;30.02;28.45;;;;;;;11.23;100.00;102079.88;5078848;28;20027;-76
2022/10/04 02:35:35;;;;;;;28.65;27.08;;;;;;;11.16;100.00;102062.84;5082490;28;20028;-76
2022/10/04 02:38:08;;;;;;;29.90;28.50;;;;;;;11.09;100.00;102058.06;5077437;28;20046;-76
2022/10/04 02:40:46;;;;;;;28.55;27.08;;;;;;;10.97;100.00;102027.34;5081758;28;20061;-76
2022/10/04 02:43:19;;;;;;;26.10;24.52;;;;;;;11.02;100.00;102035.75;5074505;28;20024;-76
2022/10/04 02:45:56;;;;;;;28.00;26.60;;;;;;;11.09;100.00;102055.41;5080110;28;20060;-76
2022/10/04 02:48:30;;;;;;;32.80;31.23;;;;;;;11.05;100.00;102050.50;5074361;28;20051;-76
2022/10/04 02:51:05;;;;;;;27.52;25.58;;;;;;;10.97;100.00;102032.63;5072765;28;20348;-75
2022/10/04 02:53:42;;;;;;;24.77;23.67;;;;;;;11.01;100.00;102039.34;5076949;28;20063;-75
2022/10/04 02:56:10;;;;;;;27.50;26.20;;;;;;;10.86;100.00;102008.88;5073215;28;20107;-75
2022/10/04 02:58:39;;;;;;;27.35;25.63;;;;;;;11.00;100.00;102035.03;5077201;28;20052;-75
2022/10/04 03:01:04;;;;;;;28.85;27.30;;;;;;;11.00;100.00;102027.13;5072410;28;20068;-75
2022/10/04 03:03:33;;;;;;;30.00;28.13;;;;;;;10.96;100.00;102024.84;5075420;28;20032;-75
2022/10/04 03:06:18;;;;;;;32.58;30.77;;;;;;;10.93;100.00;102022.44;5072453;28;20036;-75
2022/10/04 03:08:51;;;;;;;35.50;33.28;;;;;;;10.92;100.00;102011.03;5068554;28;20102;-75
2022/10/04 03:11:21;;;;;;;32.45;30.85;;;;;;;10.67;100.00;101977.84;5075883;28;20054;-75
2022/10/04 03:13:50;;;;;;;33.03;31.45;;;;;;;10.85;100.00;102009.88;5077789;28;20025;-75
2022/10/04 03:16:16;;;;;;;28.48;27.13;;;;;;;10.89;100.00;102017.41;5076116;28;20111;-75
2022/10/04 03:18:44;;;;;;;30.45;28.58;;;;;;;10.77;100.00;101988.50;5079854;28;20043;-76
2022/10/04 03:21:14;;;;;;;31.10;28.92;;;;;;;10.91;100.00;102009.38;5085333;28;20041;-76
2022/10/04 03:23:41;;;;;;;33.13;30.75;;;;;;;10.88;100.00;101993.75;5079010;28;20036;-76
2022/10/04 03:26:25;;;;;;;31.55;29.73;;;;;;;10.89;100.00;102006.00;5078292;28;20024;-76
2022/10/04 03:28:51;;;;;;;32.72;31.13;;;;;;;10.76;100.00;101981.56;5077978;28;20028;-76
2022/10/04 03:31:18;;;;;;;33.33;31.65;;;;;;;10.90;100.00;102005.03;5070937;28;20052;-76
2022/10/04 03:33:45;;;;;;;35.20;32.88;;;;;;;10.91;100.00;102007.56;5064042;28;20040;-76
2022/10/04 03:36:17;;;;;;;35.58;33.90;;;;;;;10.91;100.00;102012.84;5080422;28;20025;-76
2022/10/04 03:38:45;;;;;;;33.72;31.92;;;;;;;10.90;100.00;102010.31;5071430;28;20081;-75
2022/10/04 03:41:12;;;;;;;32.38;30.42;;;;;;;10.80;100.00;101998.81;5072100;28;20052;-75
2022/10/04 03:43:44;;;;;;;35.00;33.40;;;;;;;10.89;100.00;102013.94;5061870;28;20028;-75
2022/10/04 03:46:11;;;;;;;34.28;31.52;;;;;;;10.88;100.00;102009.59;5073164;28;20032;-75
2022/10/04 03:48:42;;;;;;;34.92;32.30;;;;;;;10.87;100.00;102003.50;5073724;28;20047;-75
2022/10/04 03:51:14;;;;;;;35.17;33.30;;;;;;;10.58;100.00;101963.59;5078029;28;20047;-75
2022/10/04 03:53:44;;;;;;;34.35;32.47;;;;;;;10.75;100.00;101995.72;5065181;28;20031;-75
2022/10/04 03:56:33;;;;;;;33.58;32.03;;;;;;;10.82;100.00;102010.09;5072284;28;20031;-75
2022/10/04 03:59:02;;;;;;;33.75;31.98;;;;;;;10.81;100.00;102005.78;5072731;28;20032;-75
2022/10/04 04:01:48;;;;;;;33.97;31.58;;;;;;;10.69;100.00;101987.31;5078715;28;20024;-75
2022/10/04 04:04:25;;;;;;;33.80;31.63;;;;;;;10.77;100.00;102002.53;5079360;28;20021;-75
2022/10/04 04:06:59;;;;;;;31.27;29.35;;;;;;;10.75;100.00;101995.72;5079742;28;20136;-75
2022/10/04 04:09:42;;;;;;;33.05;31.52;;;;;;;10.68;100.00;101972.44;5077977;28;20030;-75
2022/10/04 04:12:21;;;;;;;29.88;28.55;;;;;;;10.77;100.00;101973.50;5073454;28;20025;-76
2022/10/04 04:14:50;;;;;;;32.63;30.67;;;;;;;10.84;100.00;101992.31;5077379;28;20027;-76
2022/10/04 04:17:39;;;;;;;30.58;29.23;;;;;;;10.85;100.00;101986.09;5069923;28;20494;-75
2022/10/04 04:20:16;;;;;;;32.60;30.65;;;;;;;10.70;100.00;101962.59;5081518;28;20023;-75
2022/10/04 04:22:47;;;;;;;36.75;34.78;;;;;;;10.75;100.00;101972.78;5071204;28;20054;-76
2022/10/04 04:25:15;;;;;;;32.78;31.05;;;;;;;10.80;100.00;101972.41;5076510;28;20090;-76
2022/10/04 04:27:42;;;;;;;34.92;32.58;;;;;;;10.75;100.00;101962.22;5081966;28;20086;-76
2022/10/04 04:30:15;;;;;;;37.47;35.75;;;;;;;10.67;100.00;101947.00;5076913;28;20032;-76
2022/10/04 04:32:46;;;;;;;37.40;35.50;;;;;;;10.81;100.00;101969.66;5073546;28;20055;-75
2022/10/04 04:35:31;;;;;;;;;;;;;;;10.80;100.00;101965.34;5078373;28;20020;-75
2022/10/04 04:38:16;;;;;;;30.77;29.27;;;;;;;10.69;100.00;101944.22;5075804;28;20291;-75
2022/10/04 04:40:43;;;;;;;33.88;32.30;;;;;;;10.79;100.00;101961.00;5074106;28;20518;-75
2022/10/04 04:43:15;;;;;;;39.17;37.00;;;;;;;10.65;100.00;101938.38;5070121;28;20504;-75
2022/10/04 04:45:41;;;;;;;37.22;35.33;;;;;;;10.75;100.00;101958.75;5070676;28;20021;-75
2022/10/04 04:48:07;;;;;;;37.58;35.75;;;;;;;10.59;100.00;101930.94;5074851;28;20036;-76
2022/10/04 04:50:39;;;;;;;42.88;40.80;;;;;;;10.65;100.00;101950.72;5076580;28;20024;-76
2022/10/04 04:53:16;;;;;;;37.75;35.38;;;;;;;10.63;100.00;101950.84;5076572;28;20135;-76
2022/10/04 04:55:56;;;;;;;40.60;38.25;;;;;;;10.58;100.00;101955.66;5075654;28;20046;-76
2022/10/04 04:58:34;;;;;;;36.05;33.90;;;;;;;10.54;100.00;101953.38;5073464;28;20034;-75
2022/10/04 05:01:00;;;;;;;39.20;37.13;;;;;;;10.55;100.00;101965.63;5069943;28;20032;-75
2022/10/04 05:03:29;;;;;;;38.50;36.45;;;;;;;10.52;100.00;101952.66;5072769;28;20024;-76
2022/10/04 05:05:56;;;;;;;38.90;37.20;;;;;;;10.39;100.00;101926.44;5068830;28;20043;-76
2022/10/04 05:08:26;;;;;;;37.17;35.60;;;;;;;10.46;100.00;101957.47;5071986;28;20036;-75
2022/10/04 05:11:07;;;;;;;39.60;37.47;;;;;;;10.44;100.00;101951.47;5067059;28;20025;-75
2022/10/04 05:13:46;;;;;;;33.78;32.28;;;;;;;10.42;100.00;101949.91;5081278;28;20115;-75
2022/10/04 05:16:17;;;;;;;35.83;34.13;;;;;;;10.34;100.00;101944.41;5077987;28;20104;-75
2022/10/04 05:18:44;;;;;;;36.53;34.90;;;;;;;10.23;100.00;101927.59;5080804;28;20028;-75
2022/10/04 05:21:12;;;;;;;37.92;36.03;;;;;;;10.25;100.00;101936.22;5069870;28;20033;-75
2022/10/04 05:23:37;;;;;;;37.47;34.17;;;;;;;10.19;100.00;101934.09;5073104;28;20076;-75
2022/10/04 05:26:08;;;;;;;37.72;35.03;;;;;;;10.18;100.00;101942.13;5070808;28;20089;-76
2022/10/04 05:28:34;;;;;;;;;;;;;;;10.16;100.00;101942.22;5082001;28;20154;-76
2022/10/04 05:31:23;;;;;;;29.90;28.35;;;;;;;10.14;100.00;101945.94;5075986;28;19912;-75
2022/10/04 05:33:51;;;;;;;30.30;28.83;;;;;;;10.08;100.00;101950.75;5086912;28;20028;-75
2022/10/04 05:36:29;;;;;;;30.45;28.52;;;;;;;10.08;100.00;101952.53;5066718;28;20468;-75
2022/10/04 05:39:06;;;;;;;30.80;29.17;;;;;;;10.08;100.00;101957.81;5058283;28;20017;-76
2022/10/04 05:41:41;;;;;;;31.65;30.20;;;;;;;10.06;100.00;101951.81;5057754;28;20090;-76
2022/10/04 05:44:28;;;;;;;31.88;30.30;;;;;;;10.03;100.00;101947.63;5058307;28;20467;-76
2022/10/04 05:46:59;;;;;;;44.80;42.45;;;;;;;10.01;100.00;101938.97;5057329;28;20025;-76
2022/10/04 05:49:33;;;;;;;29.45;27.92;;;;;;;9.99;100.00;101942.72;5055948;28;20042;-76
2022/10/04 05:52:02;;;;;;;30.80;29.10;;;;;;;9.87;100.00;101921.59;5050402;28;20476;-76
2022/10/04 05:54:32;;;;;;;34.85;32.00;;;;;;;9.99;100.00;101942.72;5057428;28;20369;-76
2022/10/04 05:57:16;;;;;;;25.40;24.30;;;;;;;10.02;100.00;101950.41;5065391;28;20045;-76
2022/10/04 05:59:48;;;;;;;27.60;26.23;;;;;;;9.91;100.00;101940.69;5055618;28;20131;-76
2022/10/04 06:02:41;;;;;;;29.42;27.50;;;;;;;9.87;100.00;101929.53;5062145;28;20165;-76
2022/10/04 06:05:22;;;;;;;32.08;30.33;;;;;;;9.87;100.00;101921.59;5064001;28;20150;-76
2022/10/04 06:08:00;;;;;;;33.65;31.73;;;;;;;10.06;100.00;101957.09;5072326;28;20033;-76
2022/10/04 06:10:51;;;;;;;35.38;33.17;;;;;;;9.98;100.00;101941.03;5067005;28;20033;-76
2022/10/04 06:13:22;;;;;;;;;;;;;;;9.95;100.00;101949.16;5070608;28;20017;-76
2022/10/04 06:15:48;;;;;;;23.45;22.08;;;;;;;9.87;100.00;101942.69;5072301;28;19913;-76
2022/10/04 06:18:46;;;;;;;43.42;40.58;;;;;;;9.88;100.00;101931.19;5068980;28;20077;-76
2022/10/04 06:21:26;;;;;;;25.10;23.70;;;;;;;9.86;100.00;101929.63;5066907;28;20079;-76
2022/10/04 06:23:51;;;;;;;24.33;23.02;;;;;;;9.96;100.00;101946.44;5072287;28;20028;-76
2022/10/04 06:26:24;;;;;;;26.95;25.55;;;;;;;9.98;100.00;101943.69;5065964;28;20047;-76
2022/10/04 06:29:05;;;;;;;22.83;21.70;;;;;;;10.03;100.00;101946.78;5067108;28;20051;-76
2022/10/04 06:31:47;;;;;;;31.08;29.10;;;;;;;9.97;100.00;101926.16;5071842;28;20100;-76
2022/10/04 06:34:34;;;;;;;31.70;29.98;;;;;;;10.04;100.00;101932.66;5066521;28;20028;-77
2022/10/04 06:37:36;;;;;;;25.67;24.48;;;;;;;10.04;100.00;101933.50;5067749;28;20043;-77
2022/10/04 06:40:27;;;;;;;30.63;28.73;;;;;;;10.06;100.00;101930.72;5066271;28;20027;-77
2022/10/04 06:43:17;;;;;;;28.90;27.40;;;;;;;10.08;100.00;101940.22;5069407;28;20025;-77
2022/10/04 06:46:11;;;;;;;31.42;29.88;;;;;;;9.93;100.00;101924.72;5070910;28;20287;-77
2022/10/04 06:48:51;;;;;;;31.77;30.08;;;;;;;10.19;100.00;101941.13;5069326;28;20077;-77
2022/10/04 06:51:34;;;;;;;35.67;33.42;;;;;;;10.24;100.00;101939.84;5069557;28;20111;-76
2022/10/04 06:54:31;;;;;;;38.40;36.60;;;;;;;10.35;100.00;101946.09;5064482;28;20032;-76
2022/10/04 06:57:17;;;;;;;36.42;34.83;;;;;;;10.48;100.00;101942.34;5066471;28;20476;-74
2022/10/04 06:59:52;;;;;;;40.38;38.08;;;;;;;10.48;100.00;101936.25;5064458;28;20028;-77
2022/10/04 07:02:24;;;;;;;44.33;42.33;;;;;;;10.47;100.00;101932.78;5060451;28;20074;-76
2022/10/04 07:05:00;;;;;;;49.42;46.42;;;;;;;10.44;100.00;101930.34;5058305;28;20028;-77
2022/10/04 07:07:36;;;;;;;44.28;41.88;;;;;;;10.45;100.00;101931.19;5061626;28;20044;-76
2022/10/04 07:10:47;;;;;;;49.35;46.42;;;;;;;10.58;100.00;101926.63;5059656;28;20435;-76
2022/10/04 07:13:39;;;;;;;49.65;47.50;;;;;;;10.72;100.00;101922.03;5062884;28;20165;-77
2022/10/04 07:16:36;;;;;;;52.53;49.78;;;;;;;10.79;100.00;101913.47;5060324;28;20025;-77
2022/10/04 07:19:26;;;;;;;66.43;63.40;;;;;;;10.87;100.00;101910.22;5037659;28;20105;-76
2022/10/04 07:22:06;;;;;;;67.30;64.22;;;;;;;10.87;100.00;101903.13;5055578;28;20025;-76
2022/10/04 07:25:04;;;;;;;67.57;64.80;;;;;;;10.83;100.00;101882.38;5057668;28;20558;-78
2022/10/04 07:31:05;;;;;;;63.35;60.55;;;;;;;10.96;100.00;101909.47;5060472;28;20023;-78
2022/10/04 07:33:40;;;;;;;71.18;68.07;;;;;;;11.02;100.00;101903.66;5057924;28;20043;-77
2022/10/04 07:36:14;;;;;;;67.70;64.72;;;;;;;11.15;100.00;101910.56;5058219;28;20369;-77
2022/10/04 07:38:49;;;;;;;77.35;73.65;;;;;;;11.39;100.00;101919.09;5055340;28;20043;-77
2022/10/04 07:41:50;;;;;;;81.80;78.25;;;;;;;11.69;100.00;101914.81;5060636;28;20028;-76
2022/10/04 07:44:36;;;;;;;80.22;76.20;;;;;;;12.13;100.00;101915.47;5040564;28;20043;-76
2022/10/04 07:47:28;;;;;;;107.35;103.00;;;;;;;13.02;100.00;101920.78;5046917;28;20040;-77
2022/10/04 07:49:54;;;;;;;95.97;91.90;;;;;;;14.01;100.00;101924.94;5037744;28;20182;-77
2022/10/04 07:52:40;;;;;;;52.95;50.25;;;;;;;15.03;97.08;101927.38;5028581;28;20025;-77
2022/10/04 07:55:31;;;;;;;18.00;16.58;;;;;;;14.80;92.86;101927.00;5041283;28;20040;-77
2022/10/04 07:58:11;;;;;;;14.55;13.07;;;;;;;13.98;94.99;101895.03;5041395;28;20029;-77
2022/10/04 08:00:50;;;;;;;14.35;13.35;;;;;;;13.85;95.22;101926.38;5044715;28;20036;-77
2022/10/04 08:03:33;;;;;;;16.27;15.32;;;;;;;13.53;96.96;101919.63;5036744;28;20043;-77
2022/10/04 08:06:28;;;;;;;21.50;20.33;;;;;;;13.54;98.09;101923.97;5034762;28;20045;-77
2022/10/04 08:09:21;;;;;;;24.25;22.75;;;;;;;13.35;99.26;101924.00;5014613;28;20049;-77
2022/10/04 08:11:55;;;;;;;29.27;27.33;;;;;;;13.23;99.68;101925.09;5039715;28;20025;-77
2022/10/04 08:15:12;;;;;;;34.75;32.83;;;;;;;13.26;100.00;101922.13;5041921;28;20088;-77
2022/10/04 08:18:13;;;;;;;36.00;34.42;;;;;;;13.35;100.00;101916.88;5039620;28;20013;-77
2022/10/04 08:20:41;;;;;;;36.45;34.75;;;;;;;13.48;100.00;101916.56;5052145;28;20029;-77
2022/10/04 08:23:31;;;;;;;40.53;38.58;;;;;;;13.46;99.47;101926.47;5057688;28;20021;-76
2022/10/04 08:26:36;;;;;;;42.67;40.63;;;;;;;13.48;99.51;101927.19;5056756;28;20194;-79
2022/10/04 08:32:13;;;;;;;38.05;36.22;;;;;;;13.13;100.00;101910.03;5056685;28;20125;-76
2022/10/04 08:34:54;;;;;;;45.00;43.08;;;;;;;13.33;99.94;101928.59;5056014;28;20380;-77
2022/10/04 08:37:31;;;;;;;48.83;46.58;;;;;;;13.65;99.79;101940.66;5056565;28;20028;-75
2022/10/04 08:40:09;;;;;;;38.95;36.40;;;;;;;13.92;97.99;101943.38;5058994;28;20028;-75
2022/10/04 08:42:59;;;;;;;30.52;29.05;;;;;;;14.07;98.17;101934.97;5056675;28;20492;-77
2022/10/04 08:46:08;;;;;;;37.20;35.20;;;;;;;15.28;92.68;101932.91;5057983;28;20108;-77
2022/10/04 08:48:51;;;;;;;19.80;18.38;;;;;;;16.33;87.55;101934.53;5057747;28;20035;-78
2022/10/04 08:51:38;;;;;;;11.57;10.63;;;;;;;17.02;83.69;101931.69;5057310;28;20024;-77
2022/10/04 08:54:26;;;;;;;9.23;7.35;;;;;;;16.98;80.97;101930.34;5058878;28;20036;-77
2022/10/04 08:57:14;;;;;;;9.48;6.07;;;;;;;17.79;79.43;101928.59;5054869;28;20049;-78
2022/10/04 08:59:57;;;;;;;9.45;5.97;;;;;;;18.11;77.38;101934.88;5056463;28;20127;-77
2022/10/04 09:02:40;;;;;;;9.15;6.47;;;;;;;19.41;74.07;101930.50;5055658;28;20395;-78
2022/10/04 09:05:24;;;;;;;8.57;5.97;;;;;;;19.35;73.25;101938.44;5059113;28;20037;-77
2022/10/04 09:08:21;;;;;;;5.78;4.97;;;;;;;19.99;70.38;101937.94;5062778;28;20031;-77
2022/10/04 09:10:56;;;;;;;7.13;5.50;;;;;;;21.16;68.30;101941.34;5060779;28;20098;-78
2022/10/04 09:13:43;;;;;;;4.93;4.43;;;;;;;22.78;64.37;101940.16;5060528;28;20927;-78
2022/10/04 09:16:18;;;;;;;6.13;4.13;;;;;;;21.39;64.29;101945.66;5060517;28;20028;-78
2022/10/04 09:19:22;;;;;;;10.30;4.50;;;;;;;21.23;65.35;101944.09;5057681;28;20066;-77
2022/10/04 09:22:25;;;;;;;10.98;4.97;;;;;;;20.77;66.30;101949.84;5060300;28;20048;-77
2022/10/04 09:24:59;;;;;;;6.80;4.30;;;;;;;21.10;65.95;101947.50;5059136;28;20029;-77
2022/10/04 09:27:38;;;;;;;4.70;4.18;;;;;;;20.32;66.75;101943.75;5059190;28;20029;-77
2022/10/04 09:30:21;;;;;;;6.53;4.63;;;;;;;20.76;67.57;101942.81;5059873;28;20058;-77
2022/10/04 09:33:06;;;;;;;5.85;4.30;;;;;;;21.24;65.94;101937.69;5063888;28;20077;-77
2022/10/04 09:35:44;;;;;;;6.25;4.13;;;;;;;21.32;64.44;101937.53;5064286;28;20053;-78
2022/10/04 09:38:34;;;;;;;4.07;3.60;;;;;;;21.27;65.48;101942.66;5059440;28;20451;-77
2022/10/04 09:41:33;;;;;;;5.45;4.32;;;;;;;21.38;64.86;101938.59;5061133;28;20354;-78
2022/10/04 09:44:09;;;;;;;6.60;4.40;;;;;;;20.81;66.90;101935.03;5064103;28;20105;-77
2022/10/04 09:47:02;;;;;;;4.25;3.85;;;;;;;20.97;66.13;101928.59;5060298;28;20026;-77
2022/10/04 09:50:25;;;;;;;7.85;4.30;;;;;;;22.02;62.83;101920.66;5057099;28;20058;-77
2022/10/04 09:53:19;;;;;;;5.22;3.42;;;;;;;22.31;62.43;101933.81;5053084;28;20389;-77
2022/10/04 09:55:54;;;;;;;4.22;3.00;;;;;;;23.78;59.86;101920.47;5060731;28;20070;-78
2022/10/04 09:59:07;;;;;;;5.00;3.35;;;;;;;25.04;55.16;101927.91;5062631;28;20067;-77
2022/10/04 10:01:49;;;;;;;4.15;2.58;;;;;;;23.23;57.97;101934.19;5060801;28;20035;-75
2022/10/04 10:04:27;;;;;;;3.35;3.05;;;;;;;23.33;57.61;101929.22;5057430;28;20027;-77
2022/10/04 10:06:52;;;;;;;3.88;2.75;;;;;;;23.81;58.95;101934.34;5065326;28;20605;-78
2022/10/04 10:15:47;;;;;;;4.78;2.92;;;;;;;24.43;54.14;101920.38;5060764;28;20054;-76
2022/10/04 10:18:30;;;;;;;2.55;2.35;;;;;;;23.04;56.58;101913.47;5060087;28;20055;-76
2022/10/04 10:21:05;;;;;;;7.10;2.92;;;;;;;22.80;57.46;101904.97;5057776;28;20017;-75
2022/10/04 10:24:11;;;;;;;4.20;3.03;;;;;;;23.19;57.79;101906.00;5058744;28;20037;-76
2022/10/04 10:27:04;;;;;;;3.72;2.72;;;;;;;23.93;54.83;101907.56;5058054;28;20499;-77
2022/10/04 10:29:52;;;;;;;5.93;3.17;;;;;;;24.78;52.94;101910.03;5057355;28;20059;-76
2022/10/04 10:32:17;;;;;;;7.35;3.10;;;;;;;24.37;54.22;101907.78;5058628;28;20078;-76
2022/10/04 10:35:10;;;;;;;6.28;3.33;;;;;;;23.63;55.21;101909.91;5059701;28;20033;-76
2022/10/04 10:38:02;;;;;;;6.55;3.28;;;;;;;23.47;57.76;101896.88;5058056;28;20075;-76
2022/10/04 10:40:33;;;;;;;6.53;3.00;;;;;;;24.12;55.35;101886.94;5058294;28;20028;-76
2022/10/04 10:43:06;;;;;;;3.55;2.92;;;;;;;24.69;54.01;101902.41;5062106;28;20475;-76
2022/10/04 10:46:05;;;;;;;6.78;2.85;;;;;;;26.37;51.65;101900.47;5060086;28;20158;-76
2022/10/04 10:49:04;;;;;;;5.97;2.17;;;;;;;25.98;50.65;101903.50;5059083;28;20050;-76
2022/10/04 10:51:44;;;;;;;2.97;2.50;;;;;;;23.98;54.79;101910.44;5060117;28;20039;-75
2022/10/04 10:54:25;;;;;;;2.55;2.22;;;;;;;24.35;55.00;101912.56;5058929;28;20377;-75
2022/10/04 10:56:56;;;;;;;;;;;;;;;23.95;54.14;101910.03;5060042;28;20029;-75
2022/10/04 10:59:34;;;;;;;3.90;2.28;;;;;;;22.77;55.46;101916.13;5059348;28;19916;-76
2022/10/04 11:02:15;;;;;;;2.50;2.30;;;;;;;22.71;56.69;101907.03;5058740;28;20074;-77
2022/10/04 11:04:53;;;;;;;4.45;2.63;;;;;;;22.37;57.71;101910.66;5059604;28;20139;-76
2022/10/04 11:07:24;;;;;;;3.30;2.83;;;;;;;21.14;58.41;101905.81;5063157;28;20127;-77
2022/10/04 11:10:14;;;;;;;5.43;2.17;;;;;;;21.49;59.42;101891.59;5061227;28;20025;-76
2022/10/04 11:12:48;;;;;;;6.25;2.53;;;;;;;21.07;60.15;101887.97;5064733;28;20120;-76
2022/10/04 11:16:00;;;;;;;4.30;3.10;;;;;;;21.36;59.72;101892.31;5058567;28;20075;-76
2022/10/04 11:18:57;;;;;;;2.75;2.55;;;;;;;22.19;58.92;101884.31;5056583;28;20025;-76
2022/10/04 11:21:26;;;;;;;3.65;2.67;;;;;;;23.36;57.19;101882.16;5058028;28;20012;-77
2022/10/04 11:24:02;;;;;;;3.90;2.78;;;;;;;24.29;56.17;101872.94;5058232;28;20024;-77
2022/10/04 11:26:37;;;;;;;3.40;2.53;;;;;;;23.26;55.00;101871.03;5055764;28;20466;-77
2022/10/04 11:29:27;;;;;;;5.85;2.60;;;;;;;22.70;56.47;101867.69;5059437;28;20036;-77
2022/10/04 11:32:01;;;;;;;2.57;2.20;;;;;;;23.11;56.23;101863.16;5057017;28;20059;-76
2022/10/04 11:34:49;;;;;;;3.75;2.80;;;;;;;23.70;55.51;101855.97;5059535;28;20029;-76
2022/10/04 11:37:29;;;;;;;2.60;2.22;;;;;;;23.75;54.50;101857.00;5057589;28;20028;-76
2022/10/04 11:40:09;;;;;;;2.50;2.30;;;;;;;23.33;56.28;101834.13;5062317;28;20021;-76
2022/10/04 11:42:54;;;;;;;4.63;2.60;;;;;;;24.70;53.47;101844.69;5058788;28;20539;-76
2022/10/04 11:45:54;;;;;;;2.28;2.13;;;;;;;24.12;53.07;101857.25;5059108;28;20100;-76
2022/10/04 11:48:38;;;;;;;4.03;2.67;;;;;;;24.73;54.61;101857.72;5061987;28;20048;-76
2022/10/04 11:51:51;;;;;;;4.75;2.25;;;;;;;23.78;54.27;101837.75;5054169;28;20121;-76
2022/10/04 11:55:06;;;;;;;5.22;2.83;;;;;;;22.85;54.01;101826.28;5061982;28;20093;-76
2022/10/04 11:57:53;;;;;;;3.30;2.25;;;;;;;22.96;55.97;101837.25;5041553;28;20028;-76
2022/10/04 12:00:23;;;;;;;6.63;2.65;;;;;;;23.28;57.38;101842.84;5056445;28;20519;-76
2022/10/04 12:03:06;;;;;;;3.10;2.43;;;;;;;23.25;56.53;101837.03;5057462;28;20036;-76
2022/10/04 12:05:49;;;;;;;4.47;3.00;;;;;;;21.97;59.59;101827.16;5056908;28;20092;-76
2022/10/04 12:08:37;;;;;;;4.35;3.10;;;;;;;22.98;57.09;101837.88;5065534;28;20044;-76
2022/10/04 12:11:14;;;;;;;4.10;2.75;;;;;;;23.36;56.93;101828.31;5058284;28;20035;-76
2022/10/04 12:13:50;;;;;;;4.40;2.78;;;;;;;23.38;57.00;101816.28;5053449;28;20025;-76
2022/10/04 12:16:28;;;;;;;4.45;3.55;;;;;;;24.12;55.50;101811.41;5055401;28;20511;-75